Time;durP1;ratioP1;P1;durP2;ratioP2;P2;SDS_P1;SDS_P2;PMS_P1;PMS_P2;Temp;Humidity;BMP_temperature;BMP_pressure;BME280_temperature;BME280_humidity;BME280_pressure;Samples;Min_cycle;Max_cycle;Signal;HPM_P1;HPM_P2
2022/08/28 00:02:09;;;;;;;37.20;29.55;;;17.90;99.90;;;;;;5070334;28;20028;-80
2022/08/28 00:04:35;;;;;;;33.75;28.38;;;17.90;99.90;;;;;;5068762;28;20035;-81
2022/08/28 00:07:01;;;;;;;33.35;27.90;;;17.90;99.90;;;;;;5070479;28;20039;-78
2022/08/28 00:09:27;;;;;;;30.17;24.98;;;17.90;99.90;;;;;;5073275;28;20032;-80
2022/08/28 00:11:53;;;;;;;40.83;27.98;;;18.00;99.90;;;;;;5073061;28;20027;-80
2022/08/28 00:14:20;;;;;;;40.38;31.23;;;18.00;99.90;;;;;;5073099;28;20025;-82
2022/08/28 00:16:49;;;;;;;37.55;31.35;;;18.00;99.90;;;;;;5074763;28;20556;-82
2022/08/28 00:19:18;;;;;;;36.08;29.63;;;18.00;99.90;;;;;;5072296;28;20024;-81
2022/08/28 00:21:45;;;;;;;36.07;28.30;;;18.00;99.90;;;;;;5072328;28;20035;-79
2022/08/28 00:24:11;;;;;;;29.92;25.50;;;18.00;99.90;;;;;;5071923;28;20020;-78
2022/08/28 00:29:21;;;;;;;36.28;29.40;;;18.00;99.90;;;;;;5071883;28;20082;-81
2022/08/28 00:31:47;;;;;;;35.13;29.40;;;18.00;99.90;;;;;;5073130;28;20036;-81
2022/08/28 00:34:13;;;;;;;33.95;29.55;;;18.00;99.90;;;;;;5073173;28;20032;-82
2022/08/28 00:36:39;;;;;;;31.30;26.77;;;18.00;99.90;;;;;;5072556;28;20450;-80
2022/08/28 00:39:06;;;;;;;33.78;28.08;;;18.10;99.90;;;;;;5072535;27;20052;-73
2022/08/28 00:41:33;;;;;;;32.45;27.30;;;18.10;99.90;;;;;;5071767;28;20120;-80
2022/08/28 00:44:17;;;;;;;35.35;25.95;;;18.20;99.90;;;;;;5072459;28;20474;-81
2022/08/28 00:46:45;;;;;;;31.33;24.60;;;18.30;99.90;;;;;;5071008;28;20075;-81
2022/08/28 00:49:13;;;;;;;31.83;25.33;;;18.30;99.90;;;;;;5069801;28;20488;-80
2022/08/28 00:54:25;;;;;;;28.67;23.65;;;18.30;99.90;;;;;;5069151;28;20036;-80
2022/08/28 00:56:53;;;;;;;29.60;24.55;;;18.20;99.90;;;;;;5070025;28;20500;-80
2022/08/28 00:59:22;;;;;;;29.05;24.77;;;18.20;99.90;;;;;;5074124;28;20025;-82
2022/08/28 01:01:52;;;;;;;30.63;24.38;;;18.20;99.90;;;;;;5080471;28;20029;-82
2022/08/28 01:04:19;;;;;;;28.77;23.63;;;18.20;99.90;;;;;;5079091;28;20029;-81
2022/08/28 01:06:52;;;;;;;27.33;22.55;;;18.20;99.90;;;;;;5078254;28;20048;-81
2022/08/28 01:09:19;;;;;;;25.88;22.67;;;18.20;99.90;;;;;;5078210;28;20090;-81
2022/08/28 01:11:47;;;;;;;22.92;19.92;;;18.10;99.90;;;;;;5078577;28;20618;-81
2022/08/28 01:14:17;;;;;;;24.23;21.27;;;18.10;99.90;;;;;;5078663;28;20489;-81
2022/08/28 01:16:44;;;;;;;24.92;22.30;;;18.10;99.90;;;;;;5078913;28;20029;-81
2022/08/28 01:19:18;;;;;;;28.90;22.70;;;18.10;99.90;;;;;;5078553;28;20039;-75
2022/08/28 01:22:03;;;;;;;26.85;23.00;;;18.00;99.90;;;;;;5095218;28;20111;-78
2022/08/28 01:24:30;;;;;;;29.95;23.63;;;18.00;99.90;;;;;;5098190;28;20013;-76
2022/08/28 01:26:56;;;;;;;32.92;26.83;;;17.90;99.90;;;;;;5099037;28;20005;-81
2022/08/28 01:29:21;;;;;;;34.92;26.20;;;18.00;99.90;;;;;;5098157;28;20095;-81
2022/08/28 01:31:47;;;;;;;33.88;26.35;;;17.90;99.90;;;;;;5098652;28;20068;-77
2022/08/28 01:34:13;;;;;;;31.67;25.52;;;17.90;99.90;;;;;;5097697;28;20420;-76
2022/08/28 01:36:40;;;;;;;30.27;24.83;;;17.90;99.90;;;;;;5085182;28;20448;-81
2022/08/28 01:39:19;;;;;;;33.83;25.58;;;17.90;99.90;;;;;;5074231;28;20136;-82
2022/08/28 01:41:46;;;;;;;29.35;25.10;;;17.80;99.90;;;;;;5074070;28;20032;-82
2022/08/28 01:44:16;;;;;;;32.92;27.17;;;17.80;99.90;;;;;;5073166;28;20035;-80
2022/08/28 01:46:42;;;;;;;28.98;24.67;;;17.70;99.90;;;;;;5073697;28;20091;-81
2022/08/28 01:49:10;;;;;;;26.80;21.67;;;17.70;99.90;;;;;;5072865;28;20470;-75
2022/08/28 01:51:37;;;;;;;34.60;26.73;;;17.70;99.90;;;;;;5075030;28;20088;-81
2022/08/28 01:54:03;;;;;;;31.10;25.55;;;17.70;99.90;;;;;;5075216;28;20033;-82
2022/08/28 01:56:28;;;;;;;38.60;29.10;;;17.80;99.90;;;;;;5072354;28;20027;-81
2022/08/28 01:58:54;;;;;;;32.08;26.35;;;17.70;99.90;;;;;;5073356;28;20040;-81
2022/08/28 02:01:20;;;;;;;29.33;23.02;;;17.80;99.90;;;;;;5072337;28;20095;-80
2022/08/28 02:03:47;;;;;;;27.40;22.88;;;17.80;99.90;;;;;;5072998;28;20052;-81
2022/08/28 02:06:14;;;;;;;27.00;22.55;;;17.90;99.90;;;;;;5072160;28;20028;-81
2022/08/28 02:08:40;;;;;;;33.80;26.05;;;17.90;99.90;;;;;;5072826;28;20076;-81
2022/08/28 02:11:07;;;;;;;26.67;23.85;;;17.90;99.90;;;;;;5073065;28;20024;-80
2022/08/28 02:13:35;;;;;;;28.95;23.70;;;17.90;99.90;;;;;;5072716;28;20021;-81
2022/08/28 02:16:02;;;;;;;34.33;27.55;;;17.90;99.90;;;;;;5073590;28;20358;-81
2022/08/28 02:18:28;;;;;;;32.08;24.75;;;17.90;99.90;;;;;;5071957;28;20036;-81
2022/08/28 02:20:54;;;;;;;33.83;26.67;;;18.00;99.90;;;;;;5072704;28;20032;-82
2022/08/28 02:23:19;;;;;;;30.65;25.05;;;18.00;99.90;;;;;;5071469;28;20142;-82
2022/08/28 02:25:45;;;;;;;35.60;27.08;;;18.00;99.90;;;;;;5072755;28;20029;-81
2022/08/28 02:28:11;;;;;;;38.65;29.10;;;18.00;99.90;;;;;;5071214;28;20104;-75
2022/08/28 02:30:37;;;;;;;36.35;29.42;;;18.00;99.90;;;;;;5072158;28;20024;-82
2022/08/28 02:33:03;;;;;;;31.25;26.50;;;18.10;99.90;;;;;;5072547;28;20082;-80
2022/08/28 02:35:30;;;;;;;30.85;26.48;;;18.10;99.90;;;;;;5071788;28;20252;-82
2022/08/28 02:37:55;;;;;;;36.92;30.33;;;18.10;99.90;;;;;;5072396;28;20016;-81
2022/08/28 02:40:23;;;;;;;37.10;28.55;;;18.10;99.90;;;;;;5070907;27;20055;-81
2022/08/28 02:42:49;;;;;;;39.00;29.88;;;18.10;99.90;;;;;;5073645;28;20040;-82
2022/08/28 02:45:16;;;;;;;36.88;30.60;;;18.20;99.90;;;;;;5071423;28;20033;-82
2022/08/28 02:47:43;;;;;;;35.28;27.52;;;18.20;99.90;;;;;;5072442;28;20035;-83
2022/08/28 02:50:11;;;;;;;39.97;29.48;;;18.20;99.90;;;;;;5071985;28;20429;-75
2022/08/28 02:52:38;;;;;;;43.67;29.27;;;18.20;99.90;;;;;;5071662;28;20477;-83
2022/08/28 02:55:05;;;;;;;34.40;27.25;;;18.30;99.90;;;;;;5071973;28;20024;-81
2022/08/28 02:57:31;;;;;;;38.50;29.48;;;18.20;99.90;;;;;;5071219;28;20025;-81
2022/08/28 02:59:58;;;;;;;36.65;28.88;;;18.30;99.90;;;;;;5072046;28;20029;-83
2022/08/28 03:02:24;;;;;;;37.22;28.55;;;18.30;99.90;;;;;;5071027;28;20400;-81
2022/08/28 03:04:51;;;;;;;35.95;27.63;;;18.30;99.90;;;;;;5071425;28;20479;-81
2022/08/28 03:07:18;;;;;;;34.95;27.10;;;18.30;99.90;;;;;;5071145;28;20373;-83
2022/08/28 03:09:44;;;;;;;35.63;27.40;;;18.30;99.90;;;;;;5071871;28;20036;-82
2022/08/28 03:12:12;;;;;;;31.27;26.65;;;18.20;99.90;;;;;;5071735;28;20032;-74
2022/08/28 03:14:38;;;;;;;35.35;29.02;;;18.20;99.90;;;;;;5069781;28;20028;-81
2022/08/28 03:17:04;;;;;;;39.00;30.95;;;18.20;99.90;;;;;;5070282;28;20023;-79
2022/08/28 03:19:30;;;;;;;38.42;29.17;;;18.20;99.90;;;;;;5069141;28;20056;-81
2022/08/28 03:21:56;;;;;;;39.42;30.42;;;18.20;99.90;;;;;;5069760;28;20106;-82
2022/08/28 03:24:21;;;;;;;35.75;28.50;;;18.20;99.90;;;;;;5068987;28;20055;-83
2022/08/28 03:26:47;;;;;;;39.10;29.73;;;18.20;99.90;;;;;;5069916;28;20053;-80
2022/08/28 03:29:14;;;;;;;34.83;28.90;;;18.20;99.90;;;;;;5069375;28;20024;-76
2022/08/28 03:31:40;;;;;;;36.38;29.48;;;18.20;99.90;;;;;;5069851;28;20111;-82
2022/08/28 03:34:06;;;;;;;39.92;30.05;;;18.20;99.90;;;;;;5070217;28;20096;-85
2022/08/28 03:36:32;;;;;;;38.70;30.08;;;18.20;99.90;;;;;;5068642;28;20386;-82
2022/08/28 03:39:00;;;;;;;43.33;29.42;;;18.20;99.90;;;;;;5069296;28;20083;-83
2022/08/28 03:41:28;;;;;;;35.30;28.48;;;18.20;99.90;;;;;;5067929;28;20044;-84
2022/08/28 03:43:59;;;;;;;36.88;28.75;;;18.20;99.90;;;;;;5067605;28;20687;-82
2022/08/28 03:46:26;;;;;;;38.38;27.83;;;18.20;99.90;;;;;;5070822;28;20033;-82
2022/08/28 03:48:53;;;;;;;37.05;29.55;;;18.20;99.90;;;;;;5071391;28;20068;-84
2022/08/28 03:51:24;;;;;;;39.28;30.08;;;18.20;99.90;;;;;;5070457;28;20078;-83
2022/08/28 03:53:51;;;;;;;37.92;29.75;;;18.20;99.90;;;;;;5071550;28;20053;-84
2022/08/28 03:56:21;;;;;;;40.67;29.65;;;18.30;99.90;;;;;;5070494;28;20031;-84
2022/08/28 03:58:48;;;;;;;37.72;28.85;;;18.20;99.90;;;;;;5071292;28;20112;-84
2022/08/28 04:01:14;;;;;;;34.67;26.98;;;18.20;99.90;;;;;;5070410;28;20036;-75
2022/08/28 04:03:39;;;;;;;36.47;29.83;;;18.20;99.90;;;;;;5071402;28;20537;-81
2022/08/28 04:06:05;;;;;;;33.58;27.58;;;18.20;99.90;;;;;;5070060;28;20048;-80
2022/08/28 04:08:32;;;;;;;38.28;28.65;;;18.20;99.90;;;;;;5069184;28;20118;-83
2022/08/28 04:10:59;;;;;;;37.83;28.75;;;18.20;99.90;;;;;;5069650;28;20415;-83
2022/08/28 04:13:25;;;;;;;37.08;26.92;;;18.20;99.90;;;;;;5069050;28;20032;-83
2022/08/28 04:16:09;;;;;;;37.05;28.70;;;18.20;99.90;;;;;;5051910;28;20427;-83
2022/08/28 04:18:37;;;;;;;32.75;26.23;;;18.20;99.90;;;;;;5067738;28;20029;-82
2022/08/28 04:21:11;;;;;;;40.58;29.80;;;18.10;99.90;;;;;;5069729;28;20055;-82
2022/08/28 04:23:39;;;;;;;37.03;28.63;;;18.10;99.90;;;;;;5069165;28;20040;-82
2022/08/28 04:26:06;;;;;;;32.63;27.20;;;18.10;99.90;;;;;;5066730;28;20028;-81
2022/08/28 04:28:32;;;;;;;33.28;26.95;;;18.10;99.90;;;;;;5069045;28;20021;-82
2022/08/28 04:30:58;;;;;;;35.47;27.98;;;18.10;99.90;;;;;;5069330;28;20026;-83
2022/08/28 04:33:25;;;;;;;33.45;26.02;;;18.10;99.90;;;;;;5068576;28;20466;-82
2022/08/28 04:35:51;;;;;;;36.17;28.13;;;18.10;99.90;;;;;;5069303;28;20032;-80
2022/08/28 04:38:17;;;;;;;35.63;27.95;;;18.10;99.90;;;;;;5068465;28;20381;-81
2022/08/28 04:40:43;;;;;;;43.92;28.55;;;18.10;99.90;;;;;;5068292;28;20048;-80
2022/08/28 04:43:09;;;;;;;37.55;29.13;;;18.10;99.90;;;;;;5068615;28;20032;-80
2022/08/28 04:45:42;;;;;;;37.70;28.75;;;18.10;99.90;;;;;;5068166;28;20451;-80
2022/08/28 04:48:11;;;;;;;34.85;25.27;;;18.10;99.90;;;;;;5066957;28;20385;-79
2022/08/28 04:50:40;;;;;;;34.47;27.65;;;18.10;99.90;;;;;;5069578;28;20032;-80
2022/08/28 04:53:05;;;;;;;35.35;26.75;;;18.10;99.90;;;;;;5070432;28;20491;-80
2022/08/28 04:55:31;;;;;;;34.60;26.88;;;18.10;99.90;;;;;;5072308;28;20095;-80
2022/08/28 04:57:56;;;;;;;33.72;25.67;;;18.10;99.90;;;;;;5072862;28;20017;-79
2022/08/28 05:00:22;;;;;;;34.08;27.27;;;18.10;99.90;;;;;;5072445;28;20017;-79
2022/08/28 05:02:48;;;;;;;33.40;25.77;;;18.20;99.90;;;;;;5072745;28;20500;-81
2022/08/28 05:05:14;;;;;;;31.13;24.35;;;18.20;99.90;;;;;;5072368;28;20024;-72
2022/08/28 05:07:39;;;;;;;33.42;25.85;;;18.10;99.90;;;;;;5073155;28;20090;-78
2022/08/28 05:10:06;;;;;;;34.45;25.95;;;18.20;99.90;;;;;;5072796;28;20462;-80
2022/08/28 05:12:34;;;;;;;29.95;24.75;;;18.20;99.90;;;;;;5071820;28;20071;-80
2022/08/28 05:15:00;;;;;;;32.65;25.75;;;18.30;99.90;;;;;;5073021;28;20054;-78
2022/08/28 05:17:26;;;;;;;34.22;25.52;;;18.30;99.90;;;;;;5057187;28;20017;-80
2022/08/28 05:19:53;;;;;;;34.92;26.27;;;18.30;99.90;;;;;;5075013;28;20484;-82
2022/08/28 05:22:18;;;;;;;36.10;26.52;;;18.30;99.90;;;;;;5073829;28;20040;-83
2022/08/28 05:24:44;;;;;;;35.63;27.23;;;18.30;99.90;;;;;;5074332;28;20132;-84
2022/08/28 05:27:10;;;;;;;34.53;26.75;;;18.30;99.90;;;;;;5079918;28;20414;-86
2022/08/28 05:29:35;;;;;;;38.70;27.77;;;18.30;99.90;;;;;;5073184;28;20107;-84
2022/08/28 05:32:02;;;;;;;33.00;26.35;;;18.30;99.90;;;;;;5074652;28;20454;-83
2022/08/28 05:34:27;;;;;;;30.73;24.63;;;18.30;99.90;;;;;;5073305;28;20113;-82
2022/08/28 05:36:53;;;;;;;36.30;26.42;;;18.30;99.90;;;;;;5074037;28;20067;-83
2022/08/28 05:39:19;;;;;;;30.98;24.90;;;18.40;99.90;;;;;;5062823;28;20530;-83
2022/08/28 05:41:45;;;;;;;34.63;25.65;;;18.40;99.90;;;;;;5054176;28;20090;-83
2022/08/28 05:44:12;;;;;;;35.63;26.30;;;18.40;99.90;;;;;;5053437;28;20032;-83
2022/08/28 05:46:41;;;;;;;32.78;25.45;;;18.40;99.90;;;;;;5060039;28;20073;-81
2022/08/28 05:49:08;;;;;;;30.33;24.77;;;18.40;99.90;;;;;;5037217;28;20360;-83
2022/08/28 05:51:34;;;;;;;32.72;23.40;;;18.40;99.90;;;;;;5051482;28;20056;-82
2022/08/28 05:54:00;;;;;;;31.25;25.77;;;18.40;99.90;;;;;;5052821;28;20083;-81
2022/08/28 05:56:29;;;;;;;30.35;24.50;;;18.40;99.90;;;;;;5052207;28;20095;-81
2022/08/28 05:58:56;;;;;;;31.02;24.63;;;18.50;99.90;;;;;;5052996;28;20033;-83
2022/08/28 06:01:27;;;;;;;32.75;24.08;;;18.50;99.90;;;;;;5051638;28;20477;-81
2022/08/28 06:03:58;;;;;;;28.25;22.75;;;18.50;99.90;;;;;;5052516;28;20466;-81
2022/08/28 06:06:26;;;;;;;26.92;23.10;;;18.60;99.90;;;;;;5023032;28;20021;-85
2022/08/28 06:08:58;;;;;;;29.95;23.05;;;18.50;99.90;;;;;;5048305;28;20021;-81
2022/08/28 06:11:24;;;;;;;29.08;23.42;;;18.60;99.90;;;;;;5052126;28;20029;-81
2022/08/28 06:13:50;;;;;;;28.83;22.23;;;18.60;99.90;;;;;;5052561;28;20029;-80
2022/08/28 06:16:16;;;;;;;30.73;25.13;;;18.70;99.90;;;;;;5051895;28;20032;-71
2022/08/28 06:18:41;;;;;;;31.77;22.95;;;18.80;99.90;;;;;;5052664;28;20056;-79
2022/08/28 06:21:07;;;;;;;30.15;22.80;;;18.80;99.90;;;;;;5052415;28;20032;-81
2022/08/28 06:23:33;;;;;;;27.40;21.27;;;18.90;99.90;;;;;;5051850;28;20613;-75
2022/08/28 06:25:59;;;;;;;30.13;22.25;;;18.80;99.90;;;;;;5052379;28;20024;-83
2022/08/28 06:28:26;;;;;;;27.92;21.67;;;18.90;99.90;;;;;;5052090;28;20036;-83
2022/08/28 06:30:53;;;;;;;27.63;22.30;;;18.80;99.90;;;;;;5052576;28;20031;-80
2022/08/28 06:33:20;;;;;;;26.45;20.83;;;18.90;99.90;;;;;;5051580;28;20025;-80
2022/08/28 06:35:49;;;;;;;25.60;21.52;;;18.90;99.90;;;;;;5052433;28;20029;-83
2022/08/28 06:38:16;;;;;;;29.05;21.17;;;18.90;99.90;;;;;;5051525;28;20020;-75
2022/08/28 06:40:47;;;;;;;27.15;20.67;;;19.00;99.90;;;;;;5069945;28;20109;-82
2022/08/28 06:43:14;;;;;;;25.75;19.95;;;19.00;99.90;;;;;;5071640;28;20033;-74
2022/08/28 06:45:41;;;;;;;22.88;19.10;;;19.00;99.90;;;;;;5071970;28;20056;-83
2022/08/28 06:48:16;;;;;;;27.77;19.75;;;19.00;99.90;;;;;;5076170;28;20465;-81
2022/08/28 06:50:46;;;;;;;21.98;18.00;;;19.10;99.90;;;;;;5074641;28;20078;-83
2022/08/28 06:53:14;;;;;;;21.90;16.80;;;19.10;99.90;;;;;;5067433;28;20062;-81
2022/08/28 06:55:40;;;;;;;21.70;16.85;;;19.30;99.90;;;;;;5068729;28;20096;-83
2022/08/28 06:58:07;;;;;;;24.08;17.17;;;19.30;99.90;;;;;;5070800;28;20055;-76
2022/08/28 07:00:34;;;;;;;21.90;17.88;;;19.40;99.90;;;;;;5070200;28;20029;-78
2022/08/28 07:03:00;;;;;;;20.25;16.17;;;19.50;99.90;;;;;;5066710;28;20052;-83
2022/08/28 07:05:26;;;;;;;22.75;16.95;;;19.50;99.90;;;;;;5065492;28;20021;-79
2022/08/28 07:07:52;;;;;;;23.20;16.90;;;19.50;99.90;;;;;;5067169;28;20393;-81
2022/08/28 07:10:17;;;;;;;19.10;16.75;;;19.50;99.90;;;;;;5068661;28;20098;-81
2022/08/28 07:12:43;;;;;;;17.77;13.88;;;19.60;99.90;;;;;;5068368;28;20028;-82
2022/08/28 07:15:10;;;;;;;19.23;14.90;;;19.50;99.90;;;;;;5068205;28;20039;-82
2022/08/28 07:17:35;;;;;;;22.13;15.98;;;19.60;99.90;;;;;;5069410;28;20203;-80
2022/08/28 07:20:03;;;;;;;20.25;14.82;;;19.70;99.90;;;;;;5059466;28;20457;-73
2022/08/28 07:22:29;;;;;;;21.60;15.98;;;19.70;99.90;;;;;;5069442;28;20036;-76
2022/08/28 07:24:55;;;;;;;19.60;15.90;;;19.80;99.90;;;;;;5066320;28;20044;-76
2022/08/28 07:27:23;;;;;;;18.45;14.75;;;19.90;99.90;;;;;;5070060;28;20066;-75
2022/08/28 07:29:48;;;;;;;20.92;15.95;;;20.00;99.90;;;;;;5069129;28;20063;-81
2022/08/28 07:32:16;;;;;;;22.02;16.70;;;20.00;99.90;;;;;;5070655;28;20086;-75
2022/08/28 07:34:42;;;;;;;18.42;15.70;;;20.00;99.90;;;;;;5069335;28;20063;-78
2022/08/28 07:37:07;;;;;;;24.20;16.73;;;20.00;99.90;;;;;;5070724;28;20434;-79
2022/08/28 07:39:33;;;;;;;17.20;15.13;;;20.00;99.90;;;;;;5063437;28;20805;-77
2022/08/28 07:41:59;;;;;;;18.67;15.18;;;20.00;99.90;;;;;;5058616;28;20390;-77
2022/08/28 07:47:10;;;;;;;20.25;14.75;;;20.00;99.90;;;;;;5070094;28;20083;-71
2022/08/28 07:49:37;;;;;;;19.17;14.77;;;20.00;99.90;;;;;;5064949;28;20043;-71
2022/08/28 07:52:04;;;;;;;22.20;17.63;;;20.00;99.90;;;;;;5070216;28;20037;-71
2022/08/28 07:54:30;;;;;;;25.40;16.98;;;20.00;99.90;;;;;;5067801;28;20111;-71
2022/08/28 07:56:55;;;;;;;17.88;15.55;;;20.00;99.90;;;;;;5070393;28;20108;-76
2022/08/28 07:59:21;;;;;;;20.85;15.93;;;19.90;99.90;;;;;;5064532;28;20596;-78
2022/08/28 08:01:49;;;;;;;21.48;16.00;;;19.90;99.90;;;;;;5070224;28;20041;-75
2022/08/28 08:04:18;;;;;;;18.60;16.45;;;19.90;99.90;;;;;;5068452;28;20040;-76
2022/08/28 08:06:45;;;;;;;18.20;14.83;;;20.00;99.90;;;;;;5069517;28;20028;-75
2022/08/28 08:09:13;;;;;;;20.08;16.10;;;20.00;99.90;;;;;;5065662;28;20397;-76
2022/08/28 08:11:39;;;;;;;18.52;15.38;;;20.10;99.90;;;;;;5053989;28;20045;-76
2022/08/28 08:14:06;;;;;;;21.52;16.30;;;20.20;99.90;;;;;;5061342;28;20397;-75
2022/08/28 08:16:34;;;;;;;16.33;13.35;;;20.40;99.90;;;;;;5068789;28;20035;-76
2022/08/28 08:19:01;;;;;;;14.10;12.30;;;20.40;99.90;;;;;;5058784;28;20505;-76
2022/08/28 08:21:27;;;;;;;16.52;14.05;;;20.50;99.90;;;;;;5065739;28;20036;-76
2022/08/28 08:23:52;;;;;;;18.23;13.93;;;20.70;99.90;;;;;;5064562;28;20097;-75
2022/08/28 08:26:21;;;;;;;19.92;13.35;;;20.80;99.90;;;;;;5060967;28;20024;-77
2022/08/28 08:28:49;;;;;;;18.08;14.27;;;20.90;99.90;;;;;;5063174;28;20033;-75
2022/08/28 08:31:25;;;;;;;19.55;14.35;;;20.90;99.90;;;;;;5072361;28;20036;-75
2022/08/28 08:33:54;;;;;;;21.35;14.32;;;21.00;99.90;;;;;;5069672;28;20122;-75
2022/08/28 08:36:21;;;;;;;17.15;13.10;;;21.10;99.90;;;;;;5073184;28;20035;-75
2022/08/28 08:38:48;;;;;;;18.52;14.63;;;21.10;99.90;;;;;;5061208;28;20465;-76
2022/08/28 08:41:36;;;;;;;17.23;12.88;;;21.20;99.90;;;;;;5072336;28;20029;-76
2022/08/28 08:44:04;;;;;;;17.17;11.85;;;21.20;99.90;;;;;;5069612;28;20041;-77
2022/08/28 08:46:32;;;;;;;17.13;12.70;;;21.40;99.90;;;;;;5072985;28;20048;-76
2022/08/28 08:49:03;;;;;;;15.75;12.57;;;21.50;99.90;;;;;;5043869;28;20029;-76
2022/08/28 08:51:43;;;;;;;17.70;12.95;;;21.70;99.90;;;;;;5056926;28;20027;-77
2022/08/28 08:54:14;;;;;;;15.20;12.70;;;21.90;99.90;;;;;;5069273;28;20032;-76
2022/08/28 08:56:42;;;;;;;14.90;12.75;;;22.00;99.90;;;;;;5072314;28;20037;-76
2022/08/28 08:59:24;;;;;;;15.15;12.80;;;22.20;99.90;;;;;;5060696;28;20024;-76
2022/08/28 09:02:03;;;;;;;17.15;12.70;;;22.30;99.90;;;;;;5073192;28;20037;-76
2022/08/28 09:04:35;;;;;;;16.08;12.27;;;22.40;99.90;;;;;;5068061;28;20049;-76
2022/08/28 09:07:22;;;;;;;15.55;10.73;;;22.50;99.90;;;;;;5072922;28;20070;-76
2022/08/28 09:09:56;;;;;;;14.38;12.63;;;22.50;99.90;;;;;;5069471;28;20021;-75
2022/08/28 09:12:27;;;;;;;19.73;12.52;;;22.70;99.90;;;;;;5072485;28;20028;-76
2022/08/28 09:15:08;;;;;;;18.58;11.93;;;22.80;99.90;;;;;;5069179;28;20021;-76
2022/08/28 09:17:40;;;;;;;15.15;12.18;;;22.80;99.90;;;;;;5055518;28;20028;-76
2022/08/28 09:20:08;;;;;;;16.55;13.43;;;23.00;99.90;;;;;;5062182;28;20444;-77
2022/08/28 09:22:36;;;;;;;16.63;12.90;;;23.20;99.90;;;;;;5070719;28;20032;-76
2022/08/28 09:25:02;;;;;;;13.43;11.23;;;23.40;99.90;;;;;;5069935;28;20025;-76
2022/08/28 09:27:33;;;;;;;18.42;12.35;;;23.40;99.90;;;;;;5071437;28;20032;-76
2022/08/28 09:30:07;;;;;;;16.60;12.57;;;23.50;99.90;;;;;;5072915;28;20519;-76
2022/08/28 09:32:43;;;;;;;14.48;11.43;;;23.60;99.90;;;;;;5070877;28;20028;-76
2022/08/28 09:35:24;;;;;;;14.60;11.00;;;23.90;99.90;;;;;;5073087;28;20047;-76
2022/08/28 09:37:50;;;;;;;12.25;9.95;;;24.00;99.90;;;;;;5070922;28;20135;-76
2022/08/28 09:43:27;;;;;;;14.05;10.85;;;23.90;99.90;;;;;;5071562;28;20051;-75
2022/08/28 09:46:03;;;;;;;12.50;9.90;;;23.90;99.90;;;;;;5070654;28;20382;-76
2022/08/28 09:48:38;;;;;;;12.30;9.73;;;23.80;99.90;;;;;;5062529;28;20025;-77
2022/08/28 09:51:06;;;;;;;11.43;9.07;;;23.90;99.90;;;;;;5069872;28;20081;-76
2022/08/28 09:53:55;;;;;;;12.30;10.43;;;23.90;99.90;;;;;;5068094;28;20032;-77
2022/08/28 09:56:29;;;;;;;10.00;8.35;;;24.00;99.90;;;;;;5062801;28;20082;-76
2022/08/28 09:58:58;;;;;;;9.93;8.75;;;24.10;99.90;;;;;;5073477;28;20094;-75
2022/08/28 10:01:38;;;;;;;12.65;9.57;;;24.10;99.90;;;;;;5072030;28;20059;-75
2022/08/28 10:04:04;;;;;;;15.25;9.90;;;24.10;99.90;;;;;;5073096;28;20073;-74
2022/08/28 10:06:33;;;;;;;12.38;10.27;;;24.10;99.90;;;;;;5055388;28;20032;-77
2022/08/28 10:09:17;;;;;;;11.70;10.27;;;24.10;99.90;;;;;;5047554;28;20099;-78
2022/08/28 10:12:03;;;;;;;12.20;8.75;;;24.00;99.90;;;;;;5058881;28;20032;-78
2022/08/28 10:15:02;;;;;;;13.32;8.82;;;23.90;99.90;;;;;;5071835;28;20028;-79
2022/08/28 10:17:34;;;;;;;14.27;10.35;;;23.90;99.90;;;;;;5065556;28;20086;-78
2022/08/28 10:20:06;;;;;;;13.02;10.63;;;24.10;99.90;;;;;;5070884;28;20029;-78
2022/08/28 10:22:50;;;;;;;13.80;9.35;;;24.10;99.90;;;;;;5069776;28;20509;-77
2022/08/28 10:25:24;;;;;;;10.80;9.50;;;24.20;99.90;;;;;;5053071;28;20030;-77
2022/08/28 10:28:23;;;;;;;13.18;9.68;;;24.30;99.90;;;;;;5072785;28;20485;-77
2022/08/28 10:30:56;;;;;;;13.13;10.13;;;24.60;99.90;;;;;;5060673;28;20115;-77
2022/08/28 10:33:51;;;;;;;14.63;10.50;;;24.50;99.90;;;;;;5071174;28;20376;-77
2022/08/28 10:36:20;;;;;;;14.45;8.32;;;24.40;99.90;;;;;;5068812;28;20068;-76
2022/08/28 10:38:58;;;;;;;10.20;8.23;;;24.40;99.90;;;;;;5071529;28;20124;-78
2022/08/28 10:41:39;;;;;;;12.23;9.47;;;24.50;99.90;;;;;;5070239;28;20051;-77
2022/08/28 10:44:07;;;;;;;11.57;9.30;;;24.90;99.90;;;;;;5072236;28;20036;-77
2022/08/28 10:46:50;;;;;;;12.50;9.80;;;25.20;99.90;;;;;;5069067;28;20091;-77
2022/08/28 10:49:43;;;;;;;13.00;7.70;;;25.20;99.90;;;;;;5070699;28;20016;-75
2022/08/28 10:52:16;;;;;;;11.55;7.75;;;25.20;99.90;;;;;;5061460;28;20032;-77
2022/08/28 10:54:51;;;;;;;9.82;7.65;;;25.30;99.90;;;;;;5070788;28;20050;-78
2022/08/28 10:57:46;;;;;;;12.35;7.47;;;25.40;99.90;;;;;;5052446;28;20389;-77
2022/08/28 11:00:18;;;;;;;11.18;8.35;;;25.60;99.90;;;;;;5068874;28;20024;-76
2022/08/28 11:03:09;;;;;;;9.80;7.13;;;25.80;99.90;;;;;;5064982;28;20037;-76
2022/08/28 11:05:41;;;;;;;7.88;7.07;;;25.80;99.90;;;;;;5058073;28;20263;-77
2022/08/28 11:08:23;;;;;;;8.32;6.50;;;25.90;99.90;;;;;;5070925;28;20035;-76
2022/08/28 11:10:51;;;;;;;7.07;5.88;;;26.20;99.90;;;;;;5063161;28;20036;-76
2022/08/28 11:13:42;;;;;;;7.43;5.40;;;26.00;99.60;;;;;;5070374;28;20177;-78
2022/08/28 11:16:17;;;;;;;6.97;5.80;;;26.10;99.90;;;;;;5069833;28;20028;-75
2022/08/28 11:19:00;;;;;;;7.82;5.63;;;26.40;99.90;;;;;;5070579;28;20029;-75
2022/08/28 11:21:30;;;;;;;13.95;6.90;;;26.70;99.40;;;;;;5061494;28;20031;-75
2022/08/28 11:24:07;;;;;;;14.68;7.70;;;27.00;98.90;;;;;;5071295;28;20028;-73
2022/08/28 11:27:03;;;;;;;10.13;6.68;;;26.90;98.50;;;;;;5068399;28;20389;-73
2022/08/28 11:29:57;;;;;;;9.48;5.63;;;26.50;98.60;;;;;;5054361;28;20025;-74
2022/08/28 11:32:36;;;;;;;10.30;7.20;;;26.00;99.40;;;;;;5061485;28;20078;-77
2022/08/28 11:35:19;;;;;;;12.80;6.97;;;25.80;99.90;;;;;;5069032;28;20741;-73
2022/08/28 11:37:48;;;;;;;8.82;5.55;;;25.90;99.00;;;;;;5070626;28;20029;-72
2022/08/28 11:40:42;;;;;;;9.10;5.90;;;26.20;98.60;;;;;;5066817;28;20493;-73
2022/08/28 11:43:14;;;;;;;8.23;6.00;;;26.50;97.90;;;;;;5068395;28;20477;-75
2022/08/28 11:45:45;;;;;;;9.82;6.10;;;26.90;97.70;;;;;;5067628;28;20131;-73
2022/08/28 11:48:32;;;;;;;8.45;5.60;;;27.50;97.10;;;;;;5071112;28;20037;-74
2022/08/28 11:51:05;;;;;;;8.65;6.38;;;27.60;96.70;;;;;;5066585;28;20024;-74
2022/08/28 11:54:12;;;;;;;7.97;7.15;;;27.40;96.10;;;;;;5054639;28;20058;-74
2022/08/28 11:57:07;;;;;;;6.65;5.45;;;26.70;96.80;;;;;;5070099;28;20024;-78
2022/08/28 11:59:44;;;;;;;8.40;6.40;;;26.40;97.80;;;;;;5055008;28;20462;-77
2022/08/28 12:02:34;;;;;;;8.77;6.35;;;26.60;97.30;;;;;;5075716;28;20380;-77
2022/08/28 12:05:01;;;;;;;7.45;6.60;;;26.80;97.20;;;;;;5075373;28;20028;-77
2022/08/28 12:07:35;;;;;;;11.80;6.40;;;26.90;97.20;;;;;;5059277;28;20028;-77
2022/08/28 12:10:01;;;;;;;7.82;5.05;;;27.00;97.20;;;;;;5075331;28;20112;-78
2022/08/28 12:12:45;;;;;;;7.47;5.32;;;27.30;97.10;;;;;;5074188;28;20063;-77
2022/08/28 12:15:26;;;;;;;6.90;5.53;;;27.70;95.60;;;;;;5075028;28;20025;-78
2022/08/28 12:17:56;;;;;;;8.95;6.45;;;27.90;95.10;;;;;;5074966;28;20027;-77
2022/08/28 12:20:47;;;;;;;10.88;6.97;;;28.10;95.70;;;;;;5075012;28;20033;-76
2022/08/28 12:23:22;;;;;;;10.52;7.35;;;28.00;95.80;;;;;;5074962;28;20079;-77
2022/08/28 12:26:09;;;;;;;9.70;6.43;;;27.40;95.90;;;;;;5074913;28;20039;-77
2022/08/28 12:28:49;;;;;;;9.70;5.97;;;26.90;96.70;;;;;;5073595;28;20046;-77
2022/08/28 12:32:10;;;;;;;7.82;6.45;;;26.30;97.80;;;;;;5074908;28;20040;-77
2022/08/28 12:34:22;;;;;;;10.90;6.75;;;26.00;98.00;;;;;;5074509;28;20082;-78
2022/08/28 12:36:58;;;;;;;10.10;6.32;;;25.60;97.50;;;;;;5074514;28;20033;-78
2022/08/28 12:39:26;;;;;;;11.43;6.82;;;25.60;97.70;;;;;;5055240;28;20489;-76
2022/08/28 12:41:51;;;;;;;10.73;6.53;;;26.00;98.10;;;;;;5061306;28;20033;-77
2022/08/28 12:44:26;;;;;;;10.80;6.90;;;26.50;98.40;;;;;;5074769;28;20035;-77
2022/08/28 12:46:53;;;;;;;10.07;6.85;;;26.70;97.60;;;;;;5074766;28;20021;-77
2022/08/28 12:49:32;;;;;;;9.73;6.85;;;26.50;97.80;;;;;;5074328;28;20028;-78
2022/08/28 12:52:15;;;;;;;8.35;6.95;;;26.10;98.10;;;;;;5074137;28;20033;-77
2022/08/28 12:54:42;;;;;;;7.60;6.47;;;26.10;97.70;;;;;;5073735;28;20033;-77
2022/08/28 12:57:14;;;;;;;9.88;6.13;;;26.20;98.10;;;;;;5074558;28;20056;-77
2022/08/28 12:59:43;;;;;;;9.30;5.95;;;26.50;98.00;;;;;;5073727;28;20028;-76